SAS27A ENKB-ENBR
Flight info
| Callsign | SAS27A |
|---|---|
| Flight time | 0h 41m |
| Altitude | 28000 |
| Route | TUTOP DCT NIDGI |
| Aircraft | A320/M-SDE3FGHIRWY/LB1 |
Departure
| Time | 2026-04-26 18:11 |
|---|---|
| Airport | Kristiansund Airport, Kvernberget (ENKB) |
Arrival
| Time | 2026-04-26 18:53 |
|---|---|
| Airport | Bergen Airport, Flesland (ENBR) |
| Time | Latitude | Longitude | Altitude | Speed | Heading |
|---|---|---|---|---|---|
| 2026-04-26 18:11 | 63.11730 | 7.86427 | 1215 ft | 164 kts | 81° |
| 2026-04-26 18:11 | 63.11849 | 7.89059 | 1915 ft | 180 kts | 84° |
| 2026-04-26 18:12 | 63.11939 | 7.91974 | 2221 ft | 201 kts | 85° |
| 2026-04-26 18:12 | 63.12033 | 7.95156 | 2742 ft | 212 kts | 85° |
| 2026-04-26 18:12 | 63.12133 | 7.98412 | 3533 ft | 213 kts | 84° |
| 2026-04-26 18:12 | 63.12166 | 8.01708 | 4308 ft | 217 kts | 98° |
| 2026-04-26 18:13 | 63.11575 | 8.04786 | 5012 ft | 225 kts | 128° |
| 2026-04-26 18:13 | 63.10297 | 8.07033 | 5381 ft | 249 kts | 152° |
| 2026-04-26 18:13 | 63.08603 | 8.08326 | 5902 ft | 266 kts | 173° |
| 2026-04-26 18:13 | 63.07373 | 8.08407 | 6418 ft | 269 kts | 188° |
| 2026-04-26 18:14 | 63.05033 | 8.06536 | 7511 ft | 272 kts | 218° |
| 2026-04-26 18:14 | 63.03717 | 8.03560 | 8280 ft | 273 kts | 238° |
| 2026-04-26 18:14 | 63.02614 | 8.00099 | 9078 ft | 279 kts | 239° |
| 2026-04-26 18:14 | 63.01487 | 7.96572 | 9872 ft | 284 kts | 239° |
| 2026-04-26 18:15 | 63.00333 | 7.92981 | 10581 ft | 292 kts | 239° |
| 2026-04-26 18:15 | 62.99112 | 7.89172 | 10823 ft | 316 kts | 239° |
| 2026-04-26 18:15 | 62.97802 | 7.85077 | 11006 ft | 338 kts | 239° |
| 2026-04-26 18:15 | 62.96454 | 7.80747 | 11506 ft | 347 kts | 240° |
| 2026-04-26 18:16 | 62.95112 | 7.76310 | 12185 ft | 350 kts | 241° |
| 2026-04-26 18:16 | 62.92439 | 7.67357 | 13568 ft | 356 kts | 242° |
| 2026-04-26 18:16 | 62.91074 | 7.62806 | 14266 ft | 358 kts | 242° |
| 2026-04-26 18:17 | 62.89692 | 7.58234 | 14901 ft | 361 kts | 242° |
| 2026-04-26 18:17 | 62.88292 | 7.53618 | 15525 ft | 365 kts | 241° |
| 2026-04-26 18:17 | 62.86877 | 7.48969 | 16130 ft | 368 kts | 241° |
| 2026-04-26 18:17 | 62.85445 | 7.44284 | 16733 ft | 372 kts | 241° |
| 2026-04-26 18:18 | 62.83998 | 7.39567 | 17334 ft | 375 kts | 241° |
| 2026-04-26 18:18 | 62.82539 | 7.34816 | 17921 ft | 378 kts | 241° |
| 2026-04-26 18:18 | 62.81062 | 7.30011 | 18511 ft | 381 kts | 241° |
| 2026-04-26 18:18 | 62.79577 | 7.25193 | 19043 ft | 384 kts | 241° |
| 2026-04-26 18:19 | 62.78074 | 7.20334 | 19567 ft | 388 kts | 240° |
| 2026-04-26 18:19 | 62.76560 | 7.15447 | 20153 ft | 390 kts | 240° |
| 2026-04-26 18:19 | 62.75032 | 7.10509 | 20741 ft | 393 kts | 240° |
| 2026-04-26 18:19 | 62.73488 | 7.05542 | 21289 ft | 396 kts | 240° |
| 2026-04-26 18:20 | 62.71935 | 7.00559 | 21805 ft | 399 kts | 240° |
| 2026-04-26 18:20 | 62.70365 | 6.95531 | 22319 ft | 402 kts | 240° |
| 2026-04-26 18:20 | 62.68783 | 6.90477 | 22814 ft | 405 kts | 240° |
| 2026-04-26 18:20 | 62.68268 | 6.88834 | 22971 ft | 406 kts | 240° |
| 2026-04-26 18:21 | 62.65587 | 6.80286 | 23772 ft | 411 kts | 240° |
| 2026-04-26 18:21 | 62.63968 | 6.75140 | 24193 ft | 413 kts | 240° |
| 2026-04-26 18:21 | 62.62355 | 6.70026 | 24584 ft | 416 kts | 239° |
| 2026-04-26 18:21 | 62.60714 | 6.64833 | 24973 ft | 418 kts | 239° |
| 2026-04-26 18:22 | 62.59062 | 6.59617 | 25352 ft | 421 kts | 239° |
| 2026-04-26 18:22 | 62.57397 | 6.54370 | 25729 ft | 423 kts | 239° |
| 2026-04-26 18:22 | 62.55725 | 6.49109 | 26073 ft | 425 kts | 239° |
| 2026-04-26 18:22 | 62.54039 | 6.43816 | 26439 ft | 427 kts | 239° |
| 2026-04-26 18:23 | 62.52339 | 6.38503 | 26802 ft | 430 kts | 239° |
| 2026-04-26 18:23 | 62.50625 | 6.33183 | 27165 ft | 432 kts | 238° |
| 2026-04-26 18:23 | 62.48901 | 6.27841 | 27512 ft | 434 kts | 238° |
| 2026-04-26 18:23 | 62.47011 | 6.22688 | 27868 ft | 440 kts | 230° |
| 2026-04-26 18:24 | 62.44746 | 6.18186 | 28202 ft | 446 kts | 221° |
| 2026-04-26 18:24 | 62.42277 | 6.14108 | 28341 ft | 447 kts | 220° |
| 2026-04-26 18:24 | 62.37338 | 6.05962 | 28357 ft | 446 kts | 220° |
| 2026-04-26 18:25 | 62.32445 | 5.97903 | 28353 ft | 446 kts | 220° |
| 2026-04-26 18:25 | 62.27519 | 5.89809 | 28355 ft | 446 kts | 220° |
| 2026-04-26 18:26 | 62.22580 | 5.81743 | 28355 ft | 445 kts | 220° |
| 2026-04-26 18:26 | 62.18473 | 5.75079 | 28350 ft | 445 kts | 220° |
| 2026-04-26 18:27 | 62.13523 | 5.67085 | 28345 ft | 445 kts | 220° |
| 2026-04-26 18:27 | 62.08582 | 5.59105 | 28340 ft | 445 kts | 220° |
| 2026-04-26 18:28 | 62.03631 | 5.51156 | 28338 ft | 445 kts | 219° |
| 2026-04-26 18:28 | 61.98342 | 5.44262 | 28333 ft | 449 kts | 205° |
| 2026-04-26 18:29 | 61.92405 | 5.39960 | 28333 ft | 451 kts | 200° |
| 2026-04-26 18:29 | 61.86488 | 5.35823 | 28329 ft | 451 kts | 201° |
| 2026-04-26 18:30 | 61.80534 | 5.31645 | 28325 ft | 450 kts | 201° |
| 2026-04-26 18:30 | 61.74575 | 5.27483 | 28327 ft | 450 kts | 201° |
| 2026-04-26 18:31 | 61.68629 | 5.23354 | 28324 ft | 450 kts | 200° |
| 2026-04-26 18:31 | 61.62680 | 5.19238 | 28323 ft | 450 kts | 201° |
| 2026-04-26 18:32 | 61.56731 | 5.15149 | 28326 ft | 450 kts | 201° |
| 2026-04-26 18:32 | 61.50785 | 5.11081 | 28329 ft | 450 kts | 201° |
| 2026-04-26 18:33 | 61.44820 | 5.07006 | 28085 ft | 449 kts | 201° |
| 2026-04-26 18:33 | 61.41889 | 5.05005 | 27816 ft | 449 kts | 201° |
| 2026-04-26 18:33 | 61.38921 | 5.02989 | 27549 ft | 447 kts | 201° |
| 2026-04-26 18:34 | 61.35966 | 5.00988 | 27283 ft | 445 kts | 201° |
| 2026-04-26 18:34 | 61.33017 | 4.98995 | 27019 ft | 444 kts | 201° |
| 2026-04-26 18:34 | 61.30084 | 4.97017 | 26756 ft | 442 kts | 201° |
| 2026-04-26 18:34 | 61.27175 | 4.95061 | 26329 ft | 437 kts | 201° |
| 2026-04-26 18:35 | 61.24285 | 4.93126 | 25733 ft | 433 kts | 201° |
| 2026-04-26 18:35 | 61.21427 | 4.91215 | 25144 ft | 429 kts | 201° |
| 2026-04-26 18:35 | 61.18596 | 4.89320 | 24620 ft | 425 kts | 201° |
| 2026-04-26 18:35 | 61.15847 | 4.87482 | 24283 ft | 416 kts | 201° |
| 2026-04-26 18:36 | 61.13105 | 4.85644 | 23842 ft | 411 kts | 201° |
| 2026-04-26 18:36 | 61.10382 | 4.83817 | 23307 ft | 408 kts | 201° |
| 2026-04-26 18:36 | 61.07673 | 4.82070 | 22799 ft | 406 kts | 198° |
| 2026-04-26 18:36 | 61.04923 | 4.81009 | 22309 ft | 407 kts | 189° |
| 2026-04-26 18:37 | 61.02063 | 4.80720 | 21830 ft | 406 kts | 185° |
| 2026-04-26 18:37 | 60.99283 | 4.80578 | 21359 ft | 403 kts | 185° |
| 2026-04-26 18:37 | 60.96487 | 4.80423 | 20917 ft | 400 kts | 185° |
| 2026-04-26 18:37 | 60.93709 | 4.80258 | 20659 ft | 400 kts | 185° |
| 2026-04-26 18:38 | 60.90929 | 4.80086 | 20397 ft | 398 kts | 185° |
| 2026-04-26 18:38 | 60.88159 | 4.79912 | 20147 ft | 398 kts | 185° |
| 2026-04-26 18:38 | 60.85397 | 4.79745 | 19899 ft | 397 kts | 185° |
| 2026-04-26 18:38 | 60.82642 | 4.79582 | 19654 ft | 395 kts | 185° |
| 2026-04-26 18:39 | 60.79895 | 4.79420 | 19409 ft | 394 kts | 185° |
| 2026-04-26 18:39 | 60.77153 | 4.79257 | 19163 ft | 393 kts | 185° |
| 2026-04-26 18:39 | 60.74423 | 4.79093 | 18919 ft | 391 kts | 185° |
| 2026-04-26 18:39 | 60.71705 | 4.78930 | 18683 ft | 390 kts | 185° |
| 2026-04-26 18:40 | 60.69029 | 4.78774 | 18405 ft | 389 kts | 185° |
| 2026-04-26 18:40 | 60.66318 | 4.78620 | 17898 ft | 387 kts | 185° |
| 2026-04-26 18:40 | 60.63639 | 4.78469 | 17378 ft | 384 kts | 185° |
| 2026-04-26 18:40 | 60.60984 | 4.78559 | 16537 ft | 384 kts | 174° |
| 2026-04-26 18:41 | 60.58409 | 4.80021 | 15646 ft | 380 kts | 162° |
| 2026-04-26 18:41 | 60.55934 | 4.81812 | 14879 ft | 373 kts | 162° |
| 2026-04-26 18:41 | 60.53488 | 4.83566 | 14380 ft | 372 kts | 162° |
| 2026-04-26 18:41 | 60.51048 | 4.85303 | 13841 ft | 370 kts | 162° |
| 2026-04-26 18:42 | 60.48623 | 4.87020 | 13328 ft | 367 kts | 162° |
| 2026-04-26 18:42 | 60.46245 | 4.88692 | 12833 ft | 365 kts | 162° |
| 2026-04-26 18:42 | 60.43857 | 4.90369 | 12337 ft | 362 kts | 162° |
| 2026-04-26 18:42 | 60.41481 | 4.92035 | 11840 ft | 359 kts | 162° |
| 2026-04-26 18:43 | 60.39133 | 4.93685 | 11200 ft | 355 kts | 162° |
| 2026-04-26 18:43 | 60.36806 | 4.95321 | 10550 ft | 351 kts | 162° |
| 2026-04-26 18:43 | 60.34530 | 4.96920 | 9850 ft | 342 kts | 162° |
| 2026-04-26 18:43 | 60.32332 | 4.98470 | 9501 ft | 322 kts | 162° |
| 2026-04-26 18:44 | 60.30290 | 4.99913 | 9333 ft | 301 kts | 162° |
| 2026-04-26 18:44 | 60.28349 | 5.01278 | 8924 ft | 289 kts | 162° |
| 2026-04-26 18:44 | 60.26514 | 5.02564 | 8530 ft | 268 kts | 162° |
| 2026-04-26 18:44 | 60.24803 | 5.03761 | 8095 ft | 260 kts | 162° |
| 2026-04-26 18:45 | 60.23100 | 5.04948 | 7653 ft | 257 kts | 162° |
| 2026-04-26 18:45 | 60.21420 | 5.06116 | 7191 ft | 255 kts | 162° |
| 2026-04-26 18:45 | 60.19754 | 5.07272 | 6616 ft | 251 kts | 162° |
| 2026-04-26 18:45 | 60.18116 | 5.08412 | 5951 ft | 247 kts | 161° |
| 2026-04-26 18:46 | 60.16495 | 5.09537 | 5290 ft | 243 kts | 161° |
| 2026-04-26 18:46 | 60.14906 | 5.10635 | 4630 ft | 239 kts | 160° |
| 2026-04-26 18:46 | 60.13351 | 5.11709 | 3981 ft | 232 kts | 160° |
| 2026-04-26 18:46 | 60.11853 | 5.12745 | 3377 ft | 223 kts | 160° |
| 2026-04-26 18:47 | 60.10565 | 5.14153 | 3191 ft | 202 kts | 131° |
| 2026-04-26 18:47 | 60.09876 | 5.16245 | 4064 ft | 177 kts | 114° |
| 2026-04-26 18:47 | 60.09364 | 5.18650 | 3795 ft | 196 kts | 104° |
| 2026-04-26 18:47 | 60.09254 | 5.21525 | 2827 ft | 216 kts | 78° |
| 2026-04-26 18:48 | 60.09800 | 5.24216 | 2518 ft | 200 kts | 51° |
| 2026-04-26 18:48 | 60.10715 | 5.26030 | 2501 ft | 173 kts | 31° |
| 2026-04-26 18:48 | 60.11757 | 5.27005 | 2492 ft | 161 kts | 13° |
| 2026-04-26 18:48 | 60.12845 | 5.27266 | 2490 ft | 157 kts | 356° |
| 2026-04-26 18:49 | 60.13902 | 5.26967 | 2562 ft | 153 kts | 351° |
| 2026-04-26 18:49 | 60.14895 | 5.26638 | 2554 ft | 137 kts | 351° |
| 2026-04-26 18:49 | 60.15828 | 5.26328 | 2544 ft | 134 kts | 351° |
| 2026-04-26 18:49 | 60.16745 | 5.26023 | 2480 ft | 132 kts | 351° |
| 2026-04-26 18:50 | 60.17652 | 5.25721 | 2354 ft | 131 kts | 351° |
| 2026-04-26 18:50 | 60.18552 | 5.25421 | 2190 ft | 130 kts | 351° |
| 2026-04-26 18:50 | 60.19445 | 5.25124 | 2013 ft | 130 kts | 351° |
| 2026-04-26 18:50 | 60.20339 | 5.24826 | 1836 ft | 130 kts | 351° |
| 2026-04-26 18:51 | 60.21228 | 5.24529 | 1657 ft | 129 kts | 351° |
| 2026-04-26 18:51 | 60.22104 | 5.24236 | 1470 ft | 129 kts | 351° |
| 2026-04-26 18:51 | 60.22988 | 5.23941 | 1295 ft | 128 kts | 349° |
| 2026-04-26 18:51 | 60.23870 | 5.23646 | 1103 ft | 128 kts | 349° |
| 2026-04-26 18:52 | 60.24747 | 5.23353 | 907 ft | 128 kts | 348° |
| 2026-04-26 18:52 | 60.25627 | 5.23058 | 721 ft | 128 kts | 349° |
| 2026-04-26 18:52 | 60.26505 | 5.22764 | 551 ft | 127 kts | 348° |
| 2026-04-26 18:52 | 60.27379 | 5.22472 | 381 ft | 127 kts | 347° |
| 2026-04-26 18:53 | 60.28249 | 5.22181 | 215 ft | 127 kts | 348° |
| 2026-04-26 18:53 | 60.29046 | 5.21903 | 162 ft | 102 kts | 351° |
| 2026-04-26 18:53 | 60.29524 | 5.21752 | 150 ft | 41 kts | 349° |
| 2026-04-26 18:53 | 60.29689 | 5.21731 | 146 ft | 15 kts | 30° |
| 2026-04-26 18:54 | 60.29720 | 5.21897 | 149 ft | 12 kts | 81° |
| 2026-04-26 18:54 | 60.29721 | 5.21913 | 149 ft | 0 kts | 82° |
| 2026-04-26 18:54 | 60.29722 | 5.21932 | 148 ft | 6 kts | 86° |
| 2026-04-26 18:55 | 60.29679 | 5.22016 | 151 ft | 12 kts | 163° |
| 2026-04-26 18:55 | 60.29582 | 5.22055 | 154 ft | 15 kts | 171° |
| 2026-04-26 18:55 | 60.29478 | 5.22089 | 157 ft | 15 kts | 170° |
| 2026-04-26 18:55 | 60.29366 | 5.22130 | 162 ft | 17 kts | 169° |
| 2026-04-26 18:56 | 60.29249 | 5.22169 | 167 ft | 17 kts | 169° |
| 2026-04-26 18:56 | 60.29118 | 5.22212 | 173 ft | 20 kts | 171° |
| 2026-04-26 18:56 | 60.28967 | 5.22263 | 172 ft | 24 kts | 170° |
| 2026-04-26 18:56 | 60.28846 | 5.22304 | 171 ft | 15 kts | 171° |
| 2026-04-26 18:57 | 60.28735 | 5.22340 | 169 ft | 14 kts | 171° |
| 2026-04-26 18:57 | 60.28691 | 5.22407 | 170 ft | 11 kts | 104° |
| 2026-04-26 18:57 | 60.28696 | 5.22445 | 171 ft | 4 kts | 66° |
| 2026-04-26 18:57 | 60.28712 | 5.22531 | 174 ft | 9 kts | 76° |
| 2026-04-26 18:58 | 60.28723 | 5.22666 | 174 ft | 10 kts | 82° |
| 2026-04-26 18:58 | 60.28744 | 5.22723 | 175 ft | 5 kts | 32° |
| 2026-04-26 18:58 | 60.28771 | 5.22791 | 175 ft | 8 kts | 70° |
| 2026-04-26 18:58 | 60.28778 | 5.22864 | 176 ft | 2 kts | 81° |
| 2026-04-26 18:59 | 60.28780 | 5.22886 | 176 ft | 0 kts | 80° |